sensor_id;sensor_type;location;lat;lon;timestamp;P1;durP1;ratioP1;P2;durP2;ratioP2
54921;SDS011;40824;45.116;21.296;2023-04-30T00:01:48;29.88;;;19.00;;
54921;SDS011;40824;45.116;21.296;2023-04-30T00:04:14;33.70;;;19.33;;
54921;SDS011;40824;45.116;21.296;2023-04-30T00:06:40;33.42;;;19.52;;
54921;SDS011;40824;45.116;21.296;2023-04-30T00:09:06;36.90;;;21.63;;
54921;SDS011;40824;45.116;21.296;2023-04-30T00:11:32;37.03;;;20.52;;
54921;SDS011;40824;45.116;21.296;2023-04-30T00:13:58;44.60;;;24.90;;
54921;SDS011;40824;45.116;21.296;2023-04-30T00:16:24;44.50;;;19.70;;
54921;SDS011;40824;45.116;21.296;2023-04-30T00:18:50;19.98;;;12.80;;
54921;SDS011;40824;45.116;21.296;2023-04-30T00:21:16;18.48;;;12.38;;
54921;SDS011;40824;45.116;21.296;2023-04-30T00:23:43;13.73;;;11.57;;
54921;SDS011;40824;45.116;21.296;2023-04-30T00:26:09;15.45;;;10.85;;
54921;SDS011;40824;45.116;21.296;2023-04-30T00:28:35;14.35;;;10.70;;
54921;SDS011;40824;45.116;21.296;2023-04-30T00:31:01;14.50;;;11.02;;
54921;SDS011;40824;45.116;21.296;2023-04-30T00:33:30;15.48;;;10.65;;
54921;SDS011;40824;45.116;21.296;2023-04-30T00:35:56;14.00;;;11.10;;
54921;SDS011;40824;45.116;21.296;2023-04-30T00:38:22;14.27;;;10.05;;
54921;SDS011;40824;45.116;21.296;2023-04-30T00:40:49;12.15;;;10.23;;
54921;SDS011;40824;45.116;21.296;2023-04-30T00:43:15;15.18;;;10.40;;
54921;SDS011;40824;45.116;21.296;2023-04-30T00:45:41;14.02;;;10.90;;
54921;SDS011;40824;45.116;21.296;2023-04-30T00:48:07;13.75;;;10.75;;
54921;SDS011;40824;45.116;21.296;2023-04-30T00:50:36;13.10;;;10.05;;
54921;SDS011;40824;45.116;21.296;2023-04-30T00:53:02;12.82;;;9.77;;
54921;SDS011;40824;45.116;21.296;2023-04-30T00:55:29;15.77;;;10.95;;
54921;SDS011;40824;45.116;21.296;2023-04-30T00:57:55;12.10;;;10.85;;
54921;SDS011;40824;45.116;21.296;2023-04-30T01:00:21;12.82;;;10.63;;
54921;SDS011;40824;45.116;21.296;2023-04-30T01:02:47;13.75;;;11.20;;
54921;SDS011;40824;45.116;21.296;2023-04-30T01:05:14;13.30;;;11.38;;
54921;SDS011;40824;45.116;21.296;2023-04-30T01:07:41;14.25;;;10.80;;
54921;SDS011;40824;45.116;21.296;2023-04-30T01:10:09;12.60;;;10.75;;
54921;SDS011;40824;45.116;21.296;2023-04-30T01:12:38;13.27;;;11.23;;
54921;SDS011;40824;45.116;21.296;2023-04-30T01:17:55;12.63;;;10.75;;
54921;SDS011;40824;45.116;21.296;2023-04-30T01:20:25;14.57;;;11.10;;
54921;SDS011;40824;45.116;21.296;2023-04-30T01:30:14;14.95;;;11.10;;
54921;SDS011;40824;45.116;21.296;2023-04-30T01:32:41;14.65;;;11.43;;
54921;SDS011;40824;45.116;21.296;2023-04-30T01:35:07;14.50;;;10.65;;
54921;SDS011;40824;45.116;21.296;2023-04-30T01:42:58;12.80;;;11.40;;
54921;SDS011;40824;45.116;21.296;2023-04-30T01:45:31;15.48;;;11.02;;
54921;SDS011;40824;45.116;21.296;2023-04-30T01:48:17;12.57;;;10.13;;
54921;SDS011;40824;45.116;21.296;2023-04-30T01:50:47;13.52;;;10.90;;
54921;SDS011;40824;45.116;21.296;2023-04-30T01:53:20;12.75;;;9.50;;
54921;SDS011;40824;45.116;21.296;2023-04-30T01:55:50;14.75;;;10.35;;
54921;SDS011;40824;45.116;21.296;2023-04-30T01:58:17;13.73;;;10.48;;
54921;SDS011;40824;45.116;21.296;2023-04-30T02:00:45;13.32;;;10.27;;
54921;SDS011;40824;45.116;21.296;2023-04-30T02:03:11;17.83;;;10.23;;
54921;SDS011;40824;45.116;21.296;2023-04-30T02:05:37;12.52;;;9.98;;
54921;SDS011;40824;45.116;21.296;2023-04-30T02:08:04;11.30;;;9.48;;
54921;SDS011;40824;45.116;21.296;2023-04-30T02:10:30;12.88;;;10.35;;
54921;SDS011;40824;45.116;21.296;2023-04-30T02:12:56;13.32;;;9.50;;
54921;SDS011;40824;45.116;21.296;2023-04-30T02:15:22;12.18;;;9.65;;
54921;SDS011;40824;45.116;21.296;2023-04-30T02:17:48;13.55;;;10.27;;
54921;SDS011;40824;45.116;21.296;2023-04-30T02:20:14;13.68;;;10.75;;
54921;SDS011;40824;45.116;21.296;2023-04-30T02:22:41;13.23;;;10.40;;
54921;SDS011;40824;45.116;21.296;2023-04-30T02:25:07;12.10;;;10.30;;
54921;SDS011;40824;45.116;21.296;2023-04-30T02:27:33;15.88;;;10.18;;
54921;SDS011;40824;45.116;21.296;2023-04-30T02:29:59;15.93;;;11.75;;
54921;SDS011;40824;45.116;21.296;2023-04-30T02:32:25;13.60;;;10.85;;
54921;SDS011;40824;45.116;21.296;2023-04-30T02:34:51;15.23;;;10.77;;
54921;SDS011;40824;45.116;21.296;2023-04-30T02:37:18;13.43;;;10.25;;
54921;SDS011;40824;45.116;21.296;2023-04-30T02:39:44;14.18;;;10.98;;
54921;SDS011;40824;45.116;21.296;2023-04-30T02:42:10;13.05;;;10.75;;
54921;SDS011;40824;45.116;21.296;2023-04-30T02:44:36;22.83;;;10.73;;
54921;SDS011;40824;45.116;21.296;2023-04-30T02:47:02;12.95;;;10.13;;
54921;SDS011;40824;45.116;21.296;2023-04-30T02:49:28;16.65;;;11.27;;
54921;SDS011;40824;45.116;21.296;2023-04-30T02:51:54;12.43;;;9.85;;
54921;SDS011;40824;45.116;21.296;2023-04-30T02:54:21;13.88;;;10.55;;
54921;SDS011;40824;45.116;21.296;2023-04-30T02:56:47;13.80;;;10.63;;
54921;SDS011;40824;45.116;21.296;2023-04-30T02:59:13;13.25;;;9.95;;
54921;SDS011;40824;45.116;21.296;2023-04-30T03:01:39;14.05;;;11.43;;
54921;SDS011;40824;45.116;21.296;2023-04-30T03:04:05;12.75;;;10.52;;
54921;SDS011;40824;45.116;21.296;2023-04-30T03:06:31;12.63;;;11.15;;
54921;SDS011;40824;45.116;21.296;2023-04-30T03:08:58;14.10;;;11.13;;
54921;SDS011;40824;45.116;21.296;2023-04-30T03:11:27;12.38;;;10.63;;
54921;SDS011;40824;45.116;21.296;2023-04-30T03:13:53;14.23;;;12.02;;
54921;SDS011;40824;45.116;21.296;2023-04-30T03:16:22;16.65;;;13.25;;
54921;SDS011;40824;45.116;21.296;2023-04-30T03:18:48;13.95;;;11.65;;
54921;SDS011;40824;45.116;21.296;2023-04-30T03:21:15;14.60;;;11.07;;
54921;SDS011;40824;45.116;21.296;2023-04-30T03:23:41;15.40;;;11.13;;
54921;SDS011;40824;45.116;21.296;2023-04-30T03:26:07;15.63;;;10.95;;
54921;SDS011;40824;45.116;21.296;2023-04-30T03:28:33;14.27;;;11.90;;
54921;SDS011;40824;45.116;21.296;2023-04-30T03:31:02;12.98;;;10.93;;
54921;SDS011;40824;45.116;21.296;2023-04-30T03:33:29;13.63;;;11.43;;
54921;SDS011;40824;45.116;21.296;2023-04-30T03:35:55;13.45;;;11.57;;
54921;SDS011;40824;45.116;21.296;2023-04-30T03:38:22;14.75;;;11.73;;
54921;SDS011;40824;45.116;21.296;2023-04-30T03:40:48;13.93;;;11.35;;
54921;SDS011;40824;45.116;21.296;2023-04-30T03:43:14;17.15;;;12.15;;
54921;SDS011;40824;45.116;21.296;2023-04-30T03:45:40;17.55;;;11.85;;
54921;SDS011;40824;45.116;21.296;2023-04-30T03:48:06;16.83;;;12.55;;
54921;SDS011;40824;45.116;21.296;2023-04-30T03:50:32;18.15;;;14.35;;
54921;SDS011;40824;45.116;21.296;2023-04-30T03:52:58;19.27;;;13.20;;
54921;SDS011;40824;45.116;21.296;2023-04-30T03:55:24;20.50;;;14.13;;
54921;SDS011;40824;45.116;21.296;2023-04-30T03:57:50;28.42;;;12.68;;
54921;SDS011;40824;45.116;21.296;2023-04-30T04:00:16;13.93;;;12.40;;
54921;SDS011;40824;45.116;21.296;2023-04-30T04:02:42;13.43;;;10.98;;
54921;SDS011;40824;45.116;21.296;2023-04-30T04:05:09;14.13;;;11.70;;
54921;SDS011;40824;45.116;21.296;2023-04-30T04:07:35;15.00;;;11.63;;
54921;SDS011;40824;45.116;21.296;2023-04-30T04:10:01;13.50;;;11.18;;
54921;SDS011;40824;45.116;21.296;2023-04-30T04:12:27;13.38;;;11.63;;
54921;SDS011;40824;45.116;21.296;2023-04-30T04:14:53;16.10;;;11.65;;
54921;SDS011;40824;45.116;21.296;2023-04-30T04:17:19;13.88;;;12.02;;
54921;SDS011;40824;45.116;21.296;2023-04-30T04:19:45;16.67;;;12.05;;
54921;SDS011;40824;45.116;21.296;2023-04-30T04:22:11;16.73;;;12.15;;
54921;SDS011;40824;45.116;21.296;2023-04-30T04:24:37;26.30;;;17.67;;
54921;SDS011;40824;45.116;21.296;2023-04-30T04:27:03;14.05;;;11.30;;
54921;SDS011;40824;45.116;21.296;2023-04-30T04:29:29;13.82;;;10.95;;
54921;SDS011;40824;45.116;21.296;2023-04-30T04:31:56;14.77;;;11.25;;
54921;SDS011;40824;45.116;21.296;2023-04-30T04:34:24;14.25;;;11.13;;
54921;SDS011;40824;45.116;21.296;2023-04-30T04:36:50;18.63;;;11.85;;
54921;SDS011;40824;45.116;21.296;2023-04-30T04:39:17;14.25;;;12.68;;
54921;SDS011;40824;45.116;21.296;2023-04-30T04:41:43;14.00;;;11.80;;
54921;SDS011;40824;45.116;21.296;2023-04-30T04:44:09;13.95;;;11.07;;
54921;SDS011;40824;45.116;21.296;2023-04-30T04:46:35;16.13;;;11.27;;
54921;SDS011;40824;45.116;21.296;2023-04-30T04:49:08;12.52;;;9.98;;
54921;SDS011;40824;45.116;21.296;2023-04-30T04:51:34;11.57;;;9.95;;
54921;SDS011;40824;45.116;21.296;2023-04-30T04:54:00;12.60;;;10.27;;
54921;SDS011;40824;45.116;21.296;2023-04-30T04:56:27;13.85;;;9.30;;
54921;SDS011;40824;45.116;21.296;2023-04-30T04:58:53;10.02;;;8.68;;
54921;SDS011;40824;45.116;21.296;2023-04-30T05:01:19;12.38;;;9.75;;
54921;SDS011;40824;45.116;21.296;2023-04-30T05:03:45;10.15;;;9.02;;
54921;SDS011;40824;45.116;21.296;2023-04-30T05:06:13;16.13;;;9.35;;
54921;SDS011;40824;45.116;21.296;2023-04-30T05:08:39;11.32;;;9.50;;
54921;SDS011;40824;45.116;21.296;2023-04-30T05:11:05;11.75;;;8.80;;
54921;SDS011;40824;45.116;21.296;2023-04-30T05:13:31;14.88;;;8.82;;
54921;SDS011;40824;45.116;21.296;2023-04-30T05:15:57;11.52;;;8.73;;
54921;SDS011;40824;45.116;21.296;2023-04-30T05:18:23;12.50;;;9.02;;
54921;SDS011;40824;45.116;21.296;2023-04-30T05:20:49;10.23;;;8.82;;
54921;SDS011;40824;45.116;21.296;2023-04-30T05:23:15;10.20;;;8.57;;
54921;SDS011;40824;45.116;21.296;2023-04-30T05:25:41;10.50;;;8.80;;
54921;SDS011;40824;45.116;21.296;2023-04-30T05:28:07;10.70;;;8.88;;
54921;SDS011;40824;45.116;21.296;2023-04-30T05:30:34;9.60;;;8.10;;
54921;SDS011;40824;45.116;21.296;2023-04-30T05:33:00;11.65;;;8.07;;
54921;SDS011;40824;45.116;21.296;2023-04-30T05:35:26;8.95;;;7.90;;
54921;SDS011;40824;45.116;21.296;2023-04-30T05:37:52;9.23;;;7.88;;
54921;SDS011;40824;45.116;21.296;2023-04-30T05:40:21;9.60;;;8.32;;
54921;SDS011;40824;45.116;21.296;2023-04-30T05:42:49;10.38;;;7.72;;
54921;SDS011;40824;45.116;21.296;2023-04-30T05:45:15;9.43;;;8.00;;
54921;SDS011;40824;45.116;21.296;2023-04-30T05:47:42;9.85;;;8.68;;
54921;SDS011;40824;45.116;21.296;2023-04-30T05:50:08;11.88;;;9.10;;
54921;SDS011;40824;45.116;21.296;2023-04-30T05:52:39;10.15;;;8.35;;
54921;SDS011;40824;45.116;21.296;2023-04-30T05:55:05;11.93;;;9.05;;
54921;SDS011;40824;45.116;21.296;2023-04-30T05:57:32;18.42;;;9.05;;
54921;SDS011;40824;45.116;21.296;2023-04-30T05:59:59;12.63;;;8.73;;
54921;SDS011;40824;45.116;21.296;2023-04-30T06:02:25;10.98;;;8.18;;
54921;SDS011;40824;45.116;21.296;2023-04-30T06:04:51;12.48;;;7.95;;
54921;SDS011;40824;45.116;21.296;2023-04-30T06:07:17;12.65;;;7.97;;
54921;SDS011;40824;45.116;21.296;2023-04-30T06:09:44;12.88;;;7.90;;
54921;SDS011;40824;45.116;21.296;2023-04-30T06:12:10;9.95;;;7.68;;
54921;SDS011;40824;45.116;21.296;2023-04-30T06:14:36;11.65;;;8.80;;
54921;SDS011;40824;45.116;21.296;2023-04-30T06:17:03;10.48;;;8.35;;
54921;SDS011;40824;45.116;21.296;2023-04-30T06:19:29;11.85;;;8.02;;
54921;SDS011;40824;45.116;21.296;2023-04-30T06:21:55;11.43;;;8.23;;
54921;SDS011;40824;45.116;21.296;2023-04-30T06:24:21;10.00;;;8.35;;
54921;SDS011;40824;45.116;21.296;2023-04-30T06:26:51;12.30;;;9.13;;
54921;SDS011;40824;45.116;21.296;2023-04-30T06:29:17;13.85;;;9.00;;
54921;SDS011;40824;45.116;21.296;2023-04-30T06:31:43;11.98;;;9.30;;
54921;SDS011;40824;45.116;21.296;2023-04-30T06:34:09;11.57;;;9.43;;
54921;SDS011;40824;45.116;21.296;2023-04-30T06:36:36;14.25;;;10.55;;
54921;SDS011;40824;45.116;21.296;2023-04-30T06:39:02;10.07;;;8.98;;
54921;SDS011;40824;45.116;21.296;2023-04-30T06:41:29;16.33;;;10.13;;
54921;SDS011;40824;45.116;21.296;2023-04-30T06:43:55;12.00;;;8.85;;
54921;SDS011;40824;45.116;21.296;2023-04-30T06:46:21;11.75;;;8.38;;
54921;SDS011;40824;45.116;21.296;2023-04-30T06:48:47;14.43;;;8.70;;
54921;SDS011;40824;45.116;21.296;2023-04-30T06:51:13;10.60;;;8.38;;
54921;SDS011;40824;45.116;21.296;2023-04-30T06:53:42;12.30;;;9.35;;
54921;SDS011;40824;45.116;21.296;2023-04-30T06:56:08;13.23;;;9.52;;
54921;SDS011;40824;45.116;21.296;2023-04-30T06:58:34;12.25;;;9.70;;
54921;SDS011;40824;45.116;21.296;2023-04-30T07:01:00;12.32;;;10.43;;
54921;SDS011;40824;45.116;21.296;2023-04-30T07:03:27;12.68;;;10.60;;
54921;SDS011;40824;45.116;21.296;2023-04-30T07:05:53;13.25;;;9.70;;
54921;SDS011;40824;45.116;21.296;2023-04-30T07:08:20;10.30;;;9.20;;
54921;SDS011;40824;45.116;21.296;2023-04-30T07:10:46;14.13;;;10.50;;
54921;SDS011;40824;45.116;21.296;2023-04-30T07:13:12;14.57;;;11.50;;
54921;SDS011;40824;45.116;21.296;2023-04-30T07:15:38;13.82;;;10.48;;
54921;SDS011;40824;45.116;21.296;2023-04-30T07:18:06;15.30;;;10.65;;
54921;SDS011;40824;45.116;21.296;2023-04-30T07:20:32;14.55;;;10.00;;
54921;SDS011;40824;45.116;21.296;2023-04-30T07:22:58;15.38;;;9.00;;
54921;SDS011;40824;45.116;21.296;2023-04-30T07:25:24;10.45;;;9.02;;
54921;SDS011;40824;45.116;21.296;2023-04-30T07:27:51;12.43;;;9.30;;
54921;SDS011;40824;45.116;21.296;2023-04-30T07:30:17;11.88;;;9.63;;
54921;SDS011;40824;45.116;21.296;2023-04-30T07:32:43;14.85;;;11.00;;
54921;SDS011;40824;45.116;21.296;2023-04-30T07:35:09;22.38;;;13.82;;
54921;SDS011;40824;45.116;21.296;2023-04-30T07:37:35;18.92;;;12.75;;
54921;SDS011;40824;45.116;21.296;2023-04-30T07:40:01;14.95;;;11.65;;
54921;SDS011;40824;45.116;21.296;2023-04-30T07:42:28;15.95;;;11.73;;
54921;SDS011;40824;45.116;21.296;2023-04-30T07:44:54;14.95;;;10.85;;
54921;SDS011;40824;45.116;21.296;2023-04-30T07:47:20;15.70;;;11.00;;
54921;SDS011;40824;45.116;21.296;2023-04-30T07:49:46;12.75;;;9.73;;
54921;SDS011;40824;45.116;21.296;2023-04-30T07:52:12;12.73;;;9.75;;
54921;SDS011;40824;45.116;21.296;2023-04-30T07:54:38;12.05;;;10.82;;
54921;SDS011;40824;45.116;21.296;2023-04-30T07:57:05;12.57;;;10.30;;
54921;SDS011;40824;45.116;21.296;2023-04-30T07:59:31;11.75;;;9.70;;
54921;SDS011;40824;45.116;21.296;2023-04-30T08:01:57;13.60;;;9.20;;
54921;SDS011;40824;45.116;21.296;2023-04-30T08:04:24;11.15;;;9.98;;
54921;SDS011;40824;45.116;21.296;2023-04-30T08:06:50;12.82;;;9.80;;
54921;SDS011;40824;45.116;21.296;2023-04-30T08:09:16;9.52;;;8.48;;
54921;SDS011;40824;45.116;21.296;2023-04-30T08:11:42;10.88;;;8.20;;
54921;SDS011;40824;45.116;21.296;2023-04-30T08:14:08;9.98;;;8.27;;
54921;SDS011;40824;45.116;21.296;2023-04-30T08:16:34;12.27;;;8.68;;
54921;SDS011;40824;45.116;21.296;2023-04-30T08:19:00;16.33;;;9.93;;
54921;SDS011;40824;45.116;21.296;2023-04-30T08:21:26;11.38;;;8.30;;
54921;SDS011;40824;45.116;21.296;2023-04-30T08:23:55;8.55;;;7.55;;
54921;SDS011;40824;45.116;21.296;2023-04-30T08:26:21;9.95;;;8.00;;
54921;SDS011;40824;45.116;21.296;2023-04-30T08:28:48;10.30;;;8.02;;
54921;SDS011;40824;45.116;21.296;2023-04-30T08:31:14;9.07;;;7.55;;
54921;SDS011;40824;45.116;21.296;2023-04-30T08:33:40;9.45;;;7.57;;
54921;SDS011;40824;45.116;21.296;2023-04-30T08:36:06;10.88;;;6.75;;
54921;SDS011;40824;45.116;21.296;2023-04-30T08:38:32;8.23;;;7.13;;
54921;SDS011;40824;45.116;21.296;2023-04-30T08:41:08;9.13;;;7.03;;
54921;SDS011;40824;45.116;21.296;2023-04-30T08:43:35;9.02;;;6.15;;
54921;SDS011;40824;45.116;21.296;2023-04-30T08:46:01;9.65;;;6.45;;
54921;SDS011;40824;45.116;21.296;2023-04-30T08:48:28;7.50;;;6.57;;
54921;SDS011;40824;45.116;21.296;2023-04-30T08:50:54;8.75;;;6.05;;
54921;SDS011;40824;45.116;21.296;2023-04-30T08:53:20;10.77;;;5.60;;
54921;SDS011;40824;45.116;21.296;2023-04-30T08:55:46;8.50;;;5.75;;
54921;SDS011;40824;45.116;21.296;2023-04-30T08:58:12;11.30;;;5.30;;
54921;SDS011;40824;45.116;21.296;2023-04-30T09:00:38;11.43;;;5.60;;
54921;SDS011;40824;45.116;21.296;2023-04-30T09:03:04;8.02;;;5.30;;
54921;SDS011;40824;45.116;21.296;2023-04-30T09:05:31;5.13;;;4.57;;
54921;SDS011;40824;45.116;21.296;2023-04-30T09:07:57;7.78;;;4.40;;
54921;SDS011;40824;45.116;21.296;2023-04-30T09:10:23;7.20;;;4.93;;
54921;SDS011;40824;45.116;21.296;2023-04-30T09:13:02;7.18;;;4.30;;
54921;SDS011;40824;45.116;21.296;2023-04-30T09:15:28;8.75;;;4.65;;
54921;SDS011;40824;45.116;21.296;2023-04-30T09:18:08;7.03;;;4.53;;
54921;SDS011;40824;45.116;21.296;2023-04-30T09:20:34;5.75;;;4.47;;
54921;SDS011;40824;45.116;21.296;2023-04-30T09:23:05;5.45;;;3.70;;
54921;SDS011;40824;45.116;21.296;2023-04-30T09:25:38;6.28;;;3.90;;
54921;SDS011;40824;45.116;21.296;2023-04-30T09:28:14;6.97;;;3.88;;
54921;SDS011;40824;45.116;21.296;2023-04-30T09:30:40;6.50;;;3.75;;
54921;SDS011;40824;45.116;21.296;2023-04-30T09:33:07;6.80;;;3.90;;
54921;SDS011;40824;45.116;21.296;2023-04-30T09:35:37;10.40;;;4.07;;
54921;SDS011;40824;45.116;21.296;2023-04-30T09:38:03;7.05;;;4.30;;
54921;SDS011;40824;45.116;21.296;2023-04-30T09:40:36;6.88;;;4.03;;
54921;SDS011;40824;45.116;21.296;2023-04-30T09:43:04;7.53;;;4.65;;
54921;SDS011;40824;45.116;21.296;2023-04-30T09:45:40;7.53;;;4.22;;
54921;SDS011;40824;45.116;21.296;2023-04-30T09:48:09;12.88;;;4.78;;
54921;SDS011;40824;45.116;21.296;2023-04-30T09:50:39;12.02;;;4.60;;
54921;SDS011;40824;45.116;21.296;2023-04-30T09:53:08;6.45;;;5.20;;
54921;SDS011;40824;45.116;21.296;2023-04-30T09:55:42;7.15;;;4.78;;
54921;SDS011;40824;45.116;21.296;2023-04-30T09:58:09;10.32;;;5.03;;
54921;SDS011;40824;45.116;21.296;2023-04-30T10:00:36;6.50;;;4.78;;
54921;SDS011;40824;45.116;21.296;2023-04-30T10:03:06;9.05;;;5.10;;
54921;SDS011;40824;45.116;21.296;2023-04-30T10:05:35;5.50;;;4.35;;
54921;SDS011;40824;45.116;21.296;2023-04-30T10:08:03;7.70;;;5.22;;
54921;SDS011;40824;45.116;21.296;2023-04-30T10:10:30;8.32;;;5.43;;
54921;SDS011;40824;45.116;21.296;2023-04-30T10:12:58;11.02;;;5.30;;
54921;SDS011;40824;45.116;21.296;2023-04-30T10:17:56;8.30;;;5.25;;
54921;SDS011;40824;45.116;21.296;2023-04-30T10:20:25;7.05;;;4.68;;
54921;SDS011;40824;45.116;21.296;2023-04-30T10:22:52;8.50;;;5.00;;
54921;SDS011;40824;45.116;21.296;2023-04-30T10:25:18;12.88;;;5.80;;
54921;SDS011;40824;45.116;21.296;2023-04-30T10:27:45;10.25;;;5.60;;
54921;SDS011;40824;45.116;21.296;2023-04-30T10:30:11;10.18;;;5.88;;
54921;SDS011;40824;45.116;21.296;2023-04-30T10:32:40;7.50;;;5.13;;
54921;SDS011;40824;45.116;21.296;2023-04-30T10:35:21;9.13;;;6.07;;
54921;SDS011;40824;45.116;21.296;2023-04-30T10:37:52;8.88;;;5.53;;
54921;SDS011;40824;45.116;21.296;2023-04-30T10:40:19;8.68;;;5.85;;
54921;SDS011;40824;45.116;21.296;2023-04-30T10:42:48;9.88;;;5.70;;
54921;SDS011;40824;45.116;21.296;2023-04-30T10:45:15;7.47;;;5.38;;
54921;SDS011;40824;45.116;21.296;2023-04-30T10:47:41;10.25;;;7.55;;
54921;SDS011;40824;45.116;21.296;2023-04-30T10:50:09;11.45;;;6.65;;
54921;SDS011;40824;45.116;21.296;2023-04-30T10:52:38;7.15;;;5.20;;
54921;SDS011;40824;45.116;21.296;2023-04-30T10:55:05;7.60;;;5.78;;
54921;SDS011;40824;45.116;21.296;2023-04-30T10:57:39;8.80;;;6.35;;
54921;SDS011;40824;45.116;21.296;2023-04-30T11:02:41;10.23;;;6.50;;
54921;SDS011;40824;45.116;21.296;2023-04-30T11:07:44;12.13;;;8.32;;
54921;SDS011;40824;45.116;21.296;2023-04-30T11:10:12;8.15;;;6.15;;
54921;SDS011;40824;45.116;21.296;2023-04-30T11:12:48;8.77;;;6.78;;
54921;SDS011;40824;45.116;21.296;2023-04-30T11:15:16;9.70;;;6.68;;
54921;SDS011;40824;45.116;21.296;2023-04-30T11:17:44;12.15;;;7.18;;
54921;SDS011;40824;45.116;21.296;2023-04-30T11:20:12;8.93;;;6.32;;
54921;SDS011;40824;45.116;21.296;2023-04-30T11:22:39;9.02;;;6.05;;
54921;SDS011;40824;45.116;21.296;2023-04-30T11:25:07;10.63;;;5.45;;
54921;SDS011;40824;45.116;21.296;2023-04-30T11:27:34;7.82;;;5.35;;
54921;SDS011;40824;45.116;21.296;2023-04-30T11:30:02;6.55;;;4.63;;
54921;SDS011;40824;45.116;21.296;2023-04-30T11:32:34;9.45;;;4.97;;
54921;SDS011;40824;45.116;21.296;2023-04-30T11:35:01;7.38;;;4.85;;
54921;SDS011;40824;45.116;21.296;2023-04-30T11:37:34;6.95;;;4.50;;
54921;SDS011;40824;45.116;21.296;2023-04-30T11:40:04;6.78;;;4.35;;
54921;SDS011;40824;45.116;21.296;2023-04-30T11:42:31;5.93;;;4.20;;
54921;SDS011;40824;45.116;21.296;2023-04-30T11:47:39;5.28;;;3.67;;
54921;SDS011;40824;45.116;21.296;2023-04-30T11:50:19;6.50;;;5.07;;
54921;SDS011;40824;45.116;21.296;2023-04-30T11:52:51;8.35;;;3.95;;
54921;SDS011;40824;45.116;21.296;2023-04-30T11:55:18;6.32;;;4.13;;
54921;SDS011;40824;45.116;21.296;2023-04-30T11:57:46;6.18;;;4.28;;
54921;SDS011;40824;45.116;21.296;2023-04-30T12:00:35;10.45;;;4.60;;
54921;SDS011;40824;45.116;21.296;2023-04-30T12:03:00;6.28;;;4.47;;
54921;SDS011;40824;45.116;21.296;2023-04-30T12:05:29;5.68;;;4.30;;
54921;SDS011;40824;45.116;21.296;2023-04-30T12:10:32;7.15;;;3.60;;
54921;SDS011;40824;45.116;21.296;2023-04-30T12:12:58;6.00;;;3.90;;
54921;SDS011;40824;45.116;21.296;2023-04-30T12:15:24;6.47;;;3.95;;
54921;SDS011;40824;45.116;21.296;2023-04-30T12:17:51;3.97;;;3.28;;
54921;SDS011;40824;45.116;21.296;2023-04-30T12:20:19;4.80;;;3.30;;
54921;SDS011;40824;45.116;21.296;2023-04-30T12:22:48;6.35;;;3.72;;
54921;SDS011;40824;45.116;21.296;2023-04-30T12:25:16;6.53;;;4.43;;
54921;SDS011;40824;45.116;21.296;2023-04-30T12:27:50;8.05;;;4.15;;
54921;SDS011;40824;45.116;21.296;2023-04-30T12:30:20;9.00;;;4.65;;
54921;SDS011;40824;45.116;21.296;2023-04-30T12:32:49;7.38;;;4.10;;
54921;SDS011;40824;45.116;21.296;2023-04-30T12:35:17;6.60;;;4.20;;
54921;SDS011;40824;45.116;21.296;2023-04-30T12:37:48;8.77;;;3.72;;
54921;SDS011;40824;45.116;21.296;2023-04-30T12:40:19;9.60;;;4.80;;
54921;SDS011;40824;45.116;21.296;2023-04-30T12:42:46;7.05;;;4.50;;
54921;SDS011;40824;45.116;21.296;2023-04-30T12:45:14;9.18;;;4.78;;
54921;SDS011;40824;45.116;21.296;2023-04-30T12:48:06;7.13;;;4.60;;
54921;SDS011;40824;45.116;21.296;2023-04-30T12:50:33;6.10;;;4.38;;
54921;SDS011;40824;45.116;21.296;2023-04-30T12:53:02;5.93;;;4.20;;
54921;SDS011;40824;45.116;21.296;2023-04-30T12:55:29;9.75;;;5.00;;
54921;SDS011;40824;45.116;21.296;2023-04-30T13:00:51;6.10;;;4.47;;
54921;SDS011;40824;45.116;21.296;2023-04-30T13:03:18;8.93;;;5.32;;
54921;SDS011;40824;45.116;21.296;2023-04-30T13:05:48;66.78;;;37.75;;
54921;SDS011;40824;45.116;21.296;2023-04-30T13:08:14;22.65;;;14.82;;
54921;SDS011;40824;45.116;21.296;2023-04-30T13:10:41;8.02;;;6.38;;
54921;SDS011;40824;45.116;21.296;2023-04-30T13:13:07;8.05;;;6.05;;
54921;SDS011;40824;45.116;21.296;2023-04-30T13:15:33;8.30;;;5.25;;
54921;SDS011;40824;45.116;21.296;2023-04-30T13:17:59;8.55;;;5.72;;
54921;SDS011;40824;45.116;21.296;2023-04-30T13:20:25;10.15;;;5.72;;
54921;SDS011;40824;45.116;21.296;2023-04-30T13:22:51;14.52;;;11.55;;
54921;SDS011;40824;45.116;21.296;2023-04-30T13:25:18;8.70;;;4.78;;
54921;SDS011;40824;45.116;21.296;2023-04-30T13:27:44;6.97;;;4.88;;
54921;SDS011;40824;45.116;21.296;2023-04-30T13:30:10;10.45;;;8.07;;
54921;SDS011;40824;45.116;21.296;2023-04-30T13:32:36;7.65;;;4.47;;
54921;SDS011;40824;45.116;21.296;2023-04-30T13:35:02;6.13;;;4.47;;
54921;SDS011;40824;45.116;21.296;2023-04-30T13:37:29;13.38;;;5.25;;
54921;SDS011;40824;45.116;21.296;2023-04-30T13:39:56;7.30;;;4.70;;
54921;SDS011;40824;45.116;21.296;2023-04-30T13:42:24;6.68;;;4.72;;
54921;SDS011;40824;45.116;21.296;2023-04-30T13:44:50;8.00;;;4.63;;
54921;SDS011;40824;45.116;21.296;2023-04-30T13:47:17;9.05;;;4.80;;
54921;SDS011;40824;45.116;21.296;2023-04-30T13:49:43;10.15;;;4.85;;
54921;SDS011;40824;45.116;21.296;2023-04-30T13:52:09;6.93;;;4.78;;
54921;SDS011;40824;45.116;21.296;2023-04-30T13:54:35;10.88;;;5.13;;
54921;SDS011;40824;45.116;21.296;2023-04-30T13:57:03;6.80;;;4.78;;
54921;SDS011;40824;45.116;21.296;2023-04-30T13:59:29;6.43;;;5.07;;
54921;SDS011;40824;45.116;21.296;2023-04-30T14:01:55;12.40;;;5.05;;
54921;SDS011;40824;45.116;21.296;2023-04-30T14:04:22;5.95;;;4.35;;
54921;SDS011;40824;45.116;21.296;2023-04-30T14:06:48;9.98;;;5.40;;
54921;SDS011;40824;45.116;21.296;2023-04-30T14:09:15;7.93;;;3.90;;
54921;SDS011;40824;45.116;21.296;2023-04-30T14:11:42;9.27;;;5.30;;
54921;SDS011;40824;45.116;21.296;2023-04-30T14:14:08;7.32;;;4.70;;
54921;SDS011;40824;45.116;21.296;2023-04-30T14:16:34;11.88;;;6.45;;
54921;SDS011;40824;45.116;21.296;2023-04-30T14:19:00;20.40;;;9.05;;
54921;SDS011;40824;45.116;21.296;2023-04-30T14:21:26;14.93;;;9.95;;
54921;SDS011;40824;45.116;21.296;2023-04-30T14:23:52;30.25;;;20.10;;
54921;SDS011;40824;45.116;21.296;2023-04-30T14:26:19;10.10;;;6.10;;
54921;SDS011;40824;45.116;21.296;2023-04-30T14:28:45;23.52;;;16.55;;
54921;SDS011;40824;45.116;21.296;2023-04-30T14:31:11;15.98;;;11.93;;
54921;SDS011;40824;45.116;21.296;2023-04-30T14:33:38;20.67;;;15.13;;
54921;SDS011;40824;45.116;21.296;2023-04-30T14:36:04;11.20;;;8.85;;
54921;SDS011;40824;45.116;21.296;2023-04-30T14:38:30;8.63;;;6.45;;
54921;SDS011;40824;45.116;21.296;2023-04-30T14:40:56;15.75;;;9.85;;
54921;SDS011;40824;45.116;21.296;2023-04-30T14:43:22;11.60;;;8.95;;
54921;SDS011;40824;45.116;21.296;2023-04-30T14:45:49;8.60;;;6.45;;
54921;SDS011;40824;45.116;21.296;2023-04-30T14:48:15;11.23;;;7.65;;
54921;SDS011;40824;45.116;21.296;2023-04-30T14:50:42;10.00;;;8.52;;
54921;SDS011;40824;45.116;21.296;2023-04-30T14:53:08;19.25;;;15.25;;